MZBZ

Details ICAO MZBZ (BZE)
Name Philip Goldson Airport
Region Belize
Timezone America/Belize (UTC-6.0)
Plans Departing 123
Arriving 171
Stats Elevation 15 ft / 5 m (AMSL)
Location 17.539900° -88.304600°
Runways 1
Magnetic Variation 0.697° W
Sunrise 2018-12-18 12:18:46 UTC / 2018-12-18 06:18:46 Local
Sunset 2018-12-18 23:23:35 UTC / 2018-12-18 17:23:35 Local
Advertisement - Login to hide

Runways

ID Width Length Bearing (true/mag) Surface Threshold Overrun Markings Lighting
07 151 ft / 46 m 9,688 ft / 2,953 m 77.06° / 77.76° ASPHALT 0 ft / 0 m 161 ft / 49 m PREC-APP CENTERLINE EDGE THRESHOLD ALSF-I REIL-OMNI
25 151 ft / 46 m 9,688 ft / 2,953 m 257.07° / 257.77° ASPHALT 0 ft / 0 m 194 ft / 59 m PREC-APP CENTERLINE EDGE THRESHOLD ALSF-I REIL-OMNI

Map

Weather


0- 5 10 15 20 25 30 35+ Temperature / °C

Clouds and Precipitation
Forecast for 2018-12-18 12:00 UTC. Updated 5 hours ago

Ground ~20,000 ft ~40,000 ft Winds

METAR

MZBZ 181400Z 28004KT 9999 SCT048 22/19 A3007 Q1018 NOSIG

TAF

Not found

Frequencies

Ground 121.90 MHz
Recorded 132.70 MHz ATIS
Tower 118.00 MHz BELIZE TWR
Warning: Do not use this data for real-world aviation or navigation. No guarantee of current accuracy is given.